sensor_id;sensor_type;location;lat;lon;timestamp;pressure;altitude;pressure_sealevel;temperature;humidity
18678;BME280;9469;51.114;13.914;2024-01-25T00:03:41;99103.00;;;7.80;100.00
18678;BME280;9469;51.114;13.914;2024-01-25T00:08:46;99091.63;;;7.69;100.00
18678;BME280;9469;51.114;13.914;2024-01-25T00:13:52;99104.56;;;7.76;100.00
18678;BME280;9469;51.114;13.914;2024-01-25T00:19:01;99115.97;;;7.76;100.00
18678;BME280;9469;51.114;13.914;2024-01-25T00:24:08;99120.22;;;7.77;100.00
18678;BME280;9469;51.114;13.914;2024-01-25T00:29:13;99118.59;;;7.81;100.00
18678;BME280;9469;51.114;13.914;2024-01-25T00:34:22;99128.16;;;7.72;100.00
18678;BME280;9469;51.114;13.914;2024-01-25T00:39:28;99123.41;;;7.69;100.00
18678;BME280;9469;51.114;13.914;2024-01-25T00:44:37;99136.13;;;7.72;100.00
18678;BME280;9469;51.114;13.914;2024-01-25T00:49:46;99134.78;;;7.70;100.00
18678;BME280;9469;51.114;13.914;2024-01-25T00:54:52;99135.06;;;7.68;100.00
18678;BME280;9469;51.114;13.914;2024-01-25T00:59:59;99137.16;;;7.71;100.00
18678;BME280;9469;51.114;13.914;2024-01-25T01:05:09;99146.69;;;7.77;100.00
18678;BME280;9469;51.114;13.914;2024-01-25T01:10:15;99144.63;;;7.64;100.00
18678;BME280;9469;51.114;13.914;2024-01-25T01:15:21;99149.88;;;7.69;100.00
18678;BME280;9469;51.114;13.914;2024-01-25T01:20:29;99140.09;;;7.70;100.00
18678;BME280;9469;51.114;13.914;2024-01-25T01:25:35;99155.47;;;7.68;100.00
18678;BME280;9469;51.114;13.914;2024-01-25T01:30:40;99146.75;;;7.57;100.00
18678;BME280;9469;51.114;13.914;2024-01-25T01:35:49;99143.00;;;7.73;100.00
18678;BME280;9469;51.114;13.914;2024-01-25T01:40:55;99132.97;;;7.65;100.00
18678;BME280;9469;51.114;13.914;2024-01-25T01:46:04;99144.34;;;7.66;100.00
18678;BME280;9469;51.114;13.914;2024-01-25T01:51:15;99160.22;;;7.66;100.00
18678;BME280;9469;51.114;13.914;2024-01-25T01:56:20;99147.50;;;7.68;100.00
18678;BME280;9469;51.114;13.914;2024-01-25T02:01:25;99151.78;;;7.64;100.00
18678;BME280;9469;51.114;13.914;2024-01-25T02:06:34;99152.06;;;7.57;100.00
18678;BME280;9469;51.114;13.914;2024-01-25T02:11:39;99166.84;;;7.63;100.00
18678;BME280;9469;51.114;13.914;2024-01-25T02:16:45;99157.31;;;7.62;100.00
18678;BME280;9469;51.114;13.914;2024-01-25T02:21:57;99170.59;;;7.57;100.00
18678;BME280;9469;51.114;13.914;2024-01-25T02:27:07;99177.69;;;7.67;100.00
18678;BME280;9469;51.114;13.914;2024-01-25T02:32:12;99179.06;;;7.54;100.00
18678;BME280;9469;51.114;13.914;2024-01-25T02:37:17;99171.94;;;7.50;100.00
18678;BME280;9469;51.114;13.914;2024-01-25T02:42:32;99175.94;;;7.32;100.00
18678;BME280;9469;51.114;13.914;2024-01-25T02:47:38;99174.09;;;7.28;100.00
18678;BME280;9469;51.114;13.914;2024-01-25T02:52:43;99176.19;;;7.46;100.00
18678;BME280;9469;51.114;13.914;2024-01-25T02:57:51;99196.78;;;7.49;100.00
18678;BME280;9469;51.114;13.914;2024-01-25T03:02:57;99201.03;;;7.45;100.00
18678;BME280;9469;51.114;13.914;2024-01-25T03:08:04;99209.78;;;7.50;100.00
18678;BME280;9469;51.114;13.914;2024-01-25T03:13:12;99203.44;;;7.41;100.00
18678;BME280;9469;51.114;13.914;2024-01-25T03:18:18;99182.78;;;7.43;100.00
18678;BME280;9469;51.114;13.914;2024-01-25T03:23:23;99179.34;;;7.48;100.00
18678;BME280;9469;51.114;13.914;2024-01-25T03:28:35;99187.56;;;7.41;100.00
18678;BME280;9469;51.114;13.914;2024-01-25T03:33:42;99205.00;;;7.47;100.00
18678;BME280;9469;51.114;13.914;2024-01-25T03:38:47;99200.00;;;7.51;100.00
18678;BME280;9469;51.114;13.914;2024-01-25T03:43:55;99196.53;;;7.50;100.00
18678;BME280;9469;51.114;13.914;2024-01-25T03:49:03;99188.88;;;7.44;99.39
18678;BME280;9469;51.114;13.914;2024-01-25T03:54:10;99190.22;;;7.46;99.03
18678;BME280;9469;51.114;13.914;2024-01-25T03:59:18;99194.94;;;7.44;98.58
18678;BME280;9469;51.114;13.914;2024-01-25T04:04:23;99160.31;;;7.36;97.99
18678;BME280;9469;51.114;13.914;2024-01-25T04:09:28;99176.97;;;7.36;98.21
18678;BME280;9469;51.114;13.914;2024-01-25T04:14:39;99182.78;;;7.38;97.62
18678;BME280;9469;51.114;13.914;2024-01-25T04:19:46;99194.97;;;7.34;98.69
18678;BME280;9469;51.114;13.914;2024-01-25T04:24:52;99181.75;;;7.29;99.02
18678;BME280;9469;51.114;13.914;2024-01-25T04:30:01;99202.41;;;7.32;98.51
18678;BME280;9469;51.114;13.914;2024-01-25T04:35:08;99186.25;;;7.29;98.98
18678;BME280;9469;51.114;13.914;2024-01-25T04:40:14;99183.88;;;7.27;98.68
18678;BME280;9469;51.114;13.914;2024-01-25T04:45:23;99175.41;;;7.25;98.30
18678;BME280;9469;51.114;13.914;2024-01-25T04:50:30;99187.03;;;7.29;97.25
18678;BME280;9469;51.114;13.914;2024-01-25T04:55:39;99199.47;;;7.29;97.37
18678;BME280;9469;51.114;13.914;2024-01-25T05:00:48;99201.88;;;7.20;97.90
18678;BME280;9469;51.114;13.914;2024-01-25T05:05:55;99212.72;;;7.23;98.14
18678;BME280;9469;51.114;13.914;2024-01-25T05:11:00;99214.06;;;7.21;98.53
18678;BME280;9469;51.114;13.914;2024-01-25T05:16:11;99218.78;;;7.24;97.89
18678;BME280;9469;51.114;13.914;2024-01-25T05:21:17;99217.75;;;7.25;98.07
18678;BME280;9469;51.114;13.914;2024-01-25T05:26:23;99223.31;;;7.23;97.96
18678;BME280;9469;51.114;13.914;2024-01-25T05:31:31;99226.22;;;7.22;97.69
18678;BME280;9469;51.114;13.914;2024-01-25T05:36:37;99241.56;;;7.30;97.27
18678;BME280;9469;51.114;13.914;2024-01-25T05:41:44;99237.84;;;7.26;97.24
18678;BME280;9469;51.114;13.914;2024-01-25T05:46:55;99226.72;;;7.29;96.23
18678;BME280;9469;51.114;13.914;2024-01-25T05:52:01;99251.59;;;7.33;95.87
18678;BME280;9469;51.114;13.914;2024-01-25T05:57:06;99260.34;;;7.29;96.12
18678;BME280;9469;51.114;13.914;2024-01-25T06:02:17;99264.03;;;7.17;96.99
18678;BME280;9469;51.114;13.914;2024-01-25T06:07:23;99261.66;;;7.16;96.98
18678;BME280;9469;51.114;13.914;2024-01-25T06:12:28;99273.31;;;7.25;96.73
18678;BME280;9469;51.114;13.914;2024-01-25T06:17:36;99259.28;;;7.24;96.27
18678;BME280;9469;51.114;13.914;2024-01-25T06:22:43;99248.44;;;7.21;95.75
18678;BME280;9469;51.114;13.914;2024-01-25T06:27:49;99268.00;;;7.15;96.18
18678;BME280;9469;51.114;13.914;2024-01-25T06:33:07;99298.97;;;7.19;95.86
18678;BME280;9469;51.114;13.914;2024-01-25T06:38:17;99305.56;;;7.17;96.45
18678;BME280;9469;51.114;13.914;2024-01-25T06:43:47;99300.00;;;7.03;97.65
18678;BME280;9469;51.114;13.914;2024-01-25T06:48:58;99311.38;;;7.04;97.27
18678;BME280;9469;51.114;13.914;2024-01-25T06:54:05;99330.97;;;7.08;96.39
18678;BME280;9469;51.114;13.914;2024-01-25T06:59:10;99341.84;;;7.16;95.85
18678;BME280;9469;51.114;13.914;2024-01-25T07:04:18;99341.03;;;7.11;95.44
18678;BME280;9469;51.114;13.914;2024-01-25T07:09:24;99350.03;;;7.15;95.11
18678;BME280;9469;51.114;13.914;2024-01-25T07:14:32;99347.91;;;7.07;95.42
18678;BME280;9469;51.114;13.914;2024-01-25T07:19:44;99364.03;;;7.05;96.24
18678;BME280;9469;51.114;13.914;2024-01-25T07:24:49;99361.41;;;7.15;95.66
18678;BME280;9469;51.114;13.914;2024-01-25T07:29:54;99364.56;;;7.07;96.30
18678;BME280;9469;51.114;13.914;2024-01-25T07:35:05;99412.47;;;7.11;96.29
18678;BME280;9469;51.114;13.914;2024-01-25T07:40:18;99412.19;;;7.12;96.24
18678;BME280;9469;51.114;13.914;2024-01-25T07:45:29;99412.47;;;7.11;96.47
18678;BME280;9469;51.114;13.914;2024-01-25T07:50:38;99402.38;;;6.98;95.60
18678;BME280;9469;51.114;13.914;2024-01-25T07:55:46;99418.81;;;7.15;95.43
18678;BME280;9469;51.114;13.914;2024-01-25T08:00:54;99411.41;;;7.07;95.08
18678;BME280;9469;51.114;13.914;2024-01-25T08:06:06;99388.66;;;7.16;95.45
18678;BME280;9469;51.114;13.914;2024-01-25T08:11:11;99409.00;;;7.05;96.34
18678;BME280;9469;51.114;13.914;2024-01-25T08:16:20;99416.47;;;7.18;95.98
18678;BME280;9469;51.114;13.914;2024-01-25T08:21:36;99406.63;;;7.09;95.38
18678;BME280;9469;51.114;13.914;2024-01-25T08:26:42;99420.41;;;7.16;94.34
18678;BME280;9469;51.114;13.914;2024-01-25T08:31:49;99408.53;;;7.18;94.06
18678;BME280;9469;51.114;13.914;2024-01-25T08:36:57;99426.25;;;7.23;94.54
18678;BME280;9469;51.114;13.914;2024-01-25T08:42:03;99437.09;;;7.27;94.62
18678;BME280;9469;51.114;13.914;2024-01-25T08:47:09;99436.03;;;7.17;95.20
18678;BME280;9469;51.114;13.914;2024-01-25T08:52:17;99448.22;;;7.23;96.05
18678;BME280;9469;51.114;13.914;2024-01-25T08:57:29;99454.03;;;7.20;96.90
18678;BME280;9469;51.114;13.914;2024-01-25T09:02:38;99442.13;;;7.23;97.35
18678;BME280;9469;51.114;13.914;2024-01-25T09:07:49;99443.19;;;7.22;96.69
18678;BME280;9469;51.114;13.914;2024-01-25T09:12:55;99441.59;;;7.21;96.95
18678;BME280;9469;51.114;13.914;2024-01-25T09:18:01;99448.53;;;7.32;96.62
18678;BME280;9469;51.114;13.914;2024-01-25T09:23:10;99466.78;;;7.39;96.24
18678;BME280;9469;51.114;13.914;2024-01-25T09:28:15;99469.69;;;7.32;96.15
18678;BME280;9469;51.114;13.914;2024-01-25T09:33:24;99463.84;;;7.35;95.77
18678;BME280;9469;51.114;13.914;2024-01-25T09:38:33;99485.03;;;7.35;94.89
18678;BME280;9469;51.114;13.914;2024-01-25T09:43:39;99476.03;;;7.31;94.77
18678;BME280;9469;51.114;13.914;2024-01-25T09:48:45;99475.22;;;7.31;94.27
18678;BME280;9469;51.114;13.914;2024-01-25T09:53:55;99488.28;;;7.52;93.77
18678;BME280;9469;51.114;13.914;2024-01-25T09:59:03;99483.53;;;7.59;92.96
18678;BME280;9469;51.114;13.914;2024-01-25T10:04:10;99501.81;;;7.66;93.01
18678;BME280;9469;51.114;13.914;2024-01-25T10:09:20;99497.56;;;7.65;93.03
18678;BME280;9469;51.114;13.914;2024-01-25T10:14:28;99519.50;;;7.50;93.70
18678;BME280;9469;51.114;13.914;2024-01-25T10:19:35;99522.22;;;7.80;93.26
18678;BME280;9469;51.114;13.914;2024-01-25T10:24:45;99516.97;;;8.11;91.38
18678;BME280;9469;51.114;13.914;2024-01-25T10:29:52;99525.94;;;7.89;91.46
18678;BME280;9469;51.114;13.914;2024-01-25T10:34:59;99526.75;;;7.80;90.12
18678;BME280;9469;51.114;13.914;2024-01-25T10:40:12;99520.09;;;7.67;90.19
18678;BME280;9469;51.114;13.914;2024-01-25T10:45:21;99507.91;;;7.76;90.00
18678;BME280;9469;51.114;13.914;2024-01-25T10:50:29;99496.81;;;7.79;89.44
18678;BME280;9469;51.114;13.914;2024-01-25T10:55:39;99491.53;;;7.84;89.47
18678;BME280;9469;51.114;13.914;2024-01-25T11:00:51;99505.03;;;7.93;89.01
18678;BME280;9469;51.114;13.914;2024-01-25T11:06:06;99504.03;;;8.49;87.89
18678;BME280;9469;51.114;13.914;2024-01-25T11:11:20;99511.72;;;8.31;87.79
18678;BME280;9469;51.114;13.914;2024-01-25T11:16:30;99494.19;;;8.00;88.96
18678;BME280;9469;51.114;13.914;2024-01-25T11:21:41;99487.56;;;7.82;88.92
18678;BME280;9469;51.114;13.914;2024-01-25T11:26:50;99501.59;;;8.13;88.53
18678;BME280;9469;51.114;13.914;2024-01-25T11:31:55;99505.31;;;8.02;88.18
18678;BME280;9469;51.114;13.914;2024-01-25T11:37:02;99511.72;;;8.41;86.50
18678;BME280;9469;51.114;13.914;2024-01-25T11:42:11;99505.56;;;8.91;85.63
18678;BME280;9469;51.114;13.914;2024-01-25T11:47:16;99512.63;;;9.15;82.99
18678;BME280;9469;51.114;13.914;2024-01-25T11:52:22;99519.34;;;8.83;85.28
18678;BME280;9469;51.114;13.914;2024-01-25T11:57:36;99528.16;;;8.33;88.11
18678;BME280;9469;51.114;13.914;2024-01-25T12:02:43;99509.03;;;8.06;89.38
18678;BME280;9469;51.114;13.914;2024-01-25T12:07:49;99537.06;;;7.91;88.71
18678;BME280;9469;51.114;13.914;2024-01-25T12:13:07;99518.63;;;8.32;88.88
18678;BME280;9469;51.114;13.914;2024-01-25T12:18:12;99518.06;;;8.55;87.91
18678;BME280;9469;51.114;13.914;2024-01-25T12:23:18;99538.78;;;8.48;89.30
18678;BME280;9469;51.114;13.914;2024-01-25T12:28:31;99506.53;;;9.20;86.90
18678;BME280;9469;51.114;13.914;2024-01-25T12:33:37;99512.25;;;8.48;89.07
18678;BME280;9469;51.114;13.914;2024-01-25T12:38:42;99513.56;;;8.55;90.10
18678;BME280;9469;51.114;13.914;2024-01-25T12:43:51;99503.22;;;8.49;90.05
18678;BME280;9469;51.114;13.914;2024-01-25T12:48:59;99512.75;;;8.70;89.09
18678;BME280;9469;51.114;13.914;2024-01-25T12:54:07;99514.88;;;8.28;90.86
18678;BME280;9469;51.114;13.914;2024-01-25T12:59:17;99511.94;;;8.24;91.39
18678;BME280;9469;51.114;13.914;2024-01-25T13:04:25;99507.72;;;8.18;92.49
18678;BME280;9469;51.114;13.914;2024-01-25T13:09:31;99510.34;;;8.23;92.73
18678;BME280;9469;51.114;13.914;2024-01-25T13:14:43;99516.72;;;8.68;89.72
18678;BME280;9469;51.114;13.914;2024-01-25T13:19:48;99501.88;;;8.06;89.48
18678;BME280;9469;51.114;13.914;2024-01-25T13:24:56;99505.06;;;8.48;88.14
18678;BME280;9469;51.114;13.914;2024-01-25T13:30:07;99520.16;;;8.73;87.26
18678;BME280;9469;51.114;13.914;2024-01-25T13:35:14;99505.09;;;8.43;88.54
18678;BME280;9469;51.114;13.914;2024-01-25T13:40:19;99518.03;;;7.94;90.63
18678;BME280;9469;51.114;13.914;2024-01-25T13:45:27;99529.19;;;8.12;90.69
18678;BME280;9469;51.114;13.914;2024-01-25T13:50:32;99539.78;;;8.07;91.29
18678;BME280;9469;51.114;13.914;2024-01-25T13:55:37;99550.91;;;8.19;91.07
18678;BME280;9469;51.114;13.914;2024-01-25T14:00:45;99545.03;;;7.96;92.88
18678;BME280;9469;51.114;13.914;2024-01-25T14:05:53;99555.09;;;7.94;93.50
18678;BME280;9469;51.114;13.914;2024-01-25T14:10:59;99563.06;;;8.00;93.08
18678;BME280;9469;51.114;13.914;2024-01-25T14:16:07;99558.53;;;7.90;93.12
18678;BME280;9469;51.114;13.914;2024-01-25T14:21:19;99568.88;;;7.86;93.88
18678;BME280;9469;51.114;13.914;2024-01-25T14:26:25;99560.06;;;7.66;94.23
18678;BME280;9469;51.114;13.914;2024-01-25T14:31:33;99556.59;;;7.60;95.00
18678;BME280;9469;51.114;13.914;2024-01-25T14:36:40;99575.63;;;7.47;95.72
18678;BME280;9469;51.114;13.914;2024-01-25T14:41:54;99564.28;;;7.57;96.22
18678;BME280;9469;51.114;13.914;2024-01-25T14:47:04;99569.03;;;7.55;96.72
18678;BME280;9469;51.114;13.914;2024-01-25T14:52:09;99567.09;;;7.35;96.75
18678;BME280;9469;51.114;13.914;2024-01-25T14:57:21;99565.44;;;7.24;98.18
18678;BME280;9469;51.114;13.914;2024-01-25T15:02:29;99566.47;;;7.18;98.89
18678;BME280;9469;51.114;13.914;2024-01-25T15:07:40;99571.75;;;7.13;99.04
18678;BME280;9469;51.114;13.914;2024-01-25T15:12:54;99582.81;;;7.05;99.19
18678;BME280;9469;51.114;13.914;2024-01-25T15:18:05;99594.41;;;6.99;98.55
18678;BME280;9469;51.114;13.914;2024-01-25T15:23:10;99594.63;;;6.92;99.01
18678;BME280;9469;51.114;13.914;2024-01-25T15:28:15;99597.97;;;7.14;98.70
18678;BME280;9469;51.114;13.914;2024-01-25T15:33:24;99605.56;;;7.06;99.25
18678;BME280;9469;51.114;13.914;2024-01-25T15:38:30;99607.44;;;7.05;99.66
18678;BME280;9469;51.114;13.914;2024-01-25T15:43:36;99616.63;;;6.98;99.87
18678;BME280;9469;51.114;13.914;2024-01-25T15:48:57;99620.66;;;7.05;99.82
18678;BME280;9469;51.114;13.914;2024-01-25T15:54:04;99635.69;;;7.00;100.00
18678;BME280;9469;51.114;13.914;2024-01-25T15:59:10;99649.41;;;6.97;100.00
18678;BME280;9469;51.114;13.914;2024-01-25T16:04:38;99651.91;;;7.13;100.00
18678;BME280;9469;51.114;13.914;2024-01-25T16:09:46;99648.47;;;7.13;100.00
18678;BME280;9469;51.114;13.914;2024-01-25T16:14:56;99647.06;;;7.00;100.00
18678;BME280;9469;51.114;13.914;2024-01-25T16:20:06;99658.91;;;6.93;100.00
18678;BME280;9469;51.114;13.914;2024-01-25T16:25:11;99661.72;;;6.81;100.00
18678;BME280;9469;51.114;13.914;2024-01-25T16:30:17;99660.50;;;6.94;100.00
18678;BME280;9469;51.114;13.914;2024-01-25T16:35:33;99669.44;;;6.88;100.00
18678;BME280;9469;51.114;13.914;2024-01-25T16:40:43;99675.03;;;6.91;100.00
18678;BME280;9469;51.114;13.914;2024-01-25T16:45:52;99677.16;;;6.94;100.00
18678;BME280;9469;51.114;13.914;2024-01-25T16:51:00;99673.69;;;6.89;100.00
18678;BME280;9469;51.114;13.914;2024-01-25T16:56:07;99671.09;;;6.94;100.00
18678;BME280;9469;51.114;13.914;2024-01-25T17:01:12;99673.09;;;6.82;100.00
18678;BME280;9469;51.114;13.914;2024-01-25T17:06:23;99682.06;;;6.81;100.00
18678;BME280;9469;51.114;13.914;2024-01-25T17:11:29;99679.44;;;6.81;100.00
18678;BME280;9469;51.114;13.914;2024-01-25T17:16:35;99687.56;;;6.74;100.00
18678;BME280;9469;51.114;13.914;2024-01-25T17:21:43;99692.38;;;6.77;100.00
18678;BME280;9469;51.114;13.914;2024-01-25T17:26:48;99702.72;;;6.84;100.00
18678;BME280;9469;51.114;13.914;2024-01-25T17:31:54;99708.06;;;6.89;100.00
18678;BME280;9469;51.114;13.914;2024-01-25T17:37:02;99707.44;;;6.77;100.00
18678;BME280;9469;51.114;13.914;2024-01-25T17:42:07;99704.72;;;6.72;100.00
18678;BME280;9469;51.114;13.914;2024-01-25T17:47:13;99698.19;;;6.79;100.00
18678;BME280;9469;51.114;13.914;2024-01-25T17:52:20;99697.25;;;6.64;100.00
18678;BME280;9469;51.114;13.914;2024-01-25T17:57:26;99703.34;;;6.64;100.00
18678;BME280;9469;51.114;13.914;2024-01-25T18:02:31;99704.91;;;6.60;100.00
18678;BME280;9469;51.114;13.914;2024-01-25T18:07:38;99715.72;;;6.59;100.00
18678;BME280;9469;51.114;13.914;2024-01-25T18:12:44;99720.94;;;6.53;100.00
18678;BME280;9469;51.114;13.914;2024-01-25T18:17:49;99723.09;;;6.57;100.00
18678;BME280;9469;51.114;13.914;2024-01-25T18:22:58;99716.47;;;6.54;100.00
18678;BME280;9469;51.114;13.914;2024-01-25T18:28:04;99712.78;;;6.55;100.00
18678;BME280;9469;51.114;13.914;2024-01-25T18:33:09;99708.88;;;6.63;100.00
18678;BME280;9469;51.114;13.914;2024-01-25T18:38:17;99715.72;;;6.59;100.00
18678;BME280;9469;51.114;13.914;2024-01-25T18:43:25;99718.69;;;6.67;100.00
18678;BME280;9469;51.114;13.914;2024-01-25T18:48:30;99721.94;;;6.47;100.00
18678;BME280;9469;51.114;13.914;2024-01-25T18:53:39;99706.78;;;6.38;100.00
18678;BME280;9469;51.114;13.914;2024-01-25T18:58:45;99711.22;;;6.32;100.00
18678;BME280;9469;51.114;13.914;2024-01-25T19:03:51;99705.25;;;6.42;100.00
18678;BME280;9469;51.114;13.914;2024-01-25T19:09:00;99704.94;;;6.38;100.00
18678;BME280;9469;51.114;13.914;2024-01-25T19:14:05;99713.72;;;6.22;100.00
18678;BME280;9469;51.114;13.914;2024-01-25T19:19:10;99720.88;;;6.22;100.00
18678;BME280;9469;51.114;13.914;2024-01-25T19:24:20;99722.78;;;6.26;100.00
18678;BME280;9469;51.114;13.914;2024-01-25T19:29:26;99720.69;;;6.28;100.00
18678;BME280;9469;51.114;13.914;2024-01-25T19:34:32;99724.84;;;6.24;100.00
18678;BME280;9469;51.114;13.914;2024-01-25T19:39:40;99725.34;;;6.43;100.00
18678;BME280;9469;51.114;13.914;2024-01-25T19:44:46;99732.19;;;6.17;100.00
18678;BME280;9469;51.114;13.914;2024-01-25T19:49:51;99738.13;;;6.29;100.00
18678;BME280;9469;51.114;13.914;2024-01-25T19:54:59;99725.66;;;6.25;100.00
18678;BME280;9469;51.114;13.914;2024-01-25T20:00:07;99717.38;;;6.16;100.00
18678;BME280;9469;51.114;13.914;2024-01-25T20:05:14;99724.31;;;6.22;100.00
18678;BME280;9469;51.114;13.914;2024-01-25T20:10:23;99738.44;;;6.11;100.00
18678;BME280;9469;51.114;13.914;2024-01-25T20:15:30;99735.94;;;6.21;100.00
18678;BME280;9469;51.114;13.914;2024-01-25T20:20:35;99734.31;;;6.20;100.00
18678;BME280;9469;51.114;13.914;2024-01-25T20:25:52;99738.63;;;6.26;100.00
18678;BME280;9469;51.114;13.914;2024-01-25T20:30:57;99724.69;;;6.09;100.00
18678;BME280;9469;51.114;13.914;2024-01-25T20:36:05;99724.00;;;6.19;100.00
18678;BME280;9469;51.114;13.914;2024-01-25T20:41:15;99727.88;;;6.11;100.00
18678;BME280;9469;51.114;13.914;2024-01-25T20:46:21;99725.03;;;6.18;100.00
18678;BME280;9469;51.114;13.914;2024-01-25T20:51:26;99725.50;;;6.10;100.00
18678;BME280;9469;51.114;13.914;2024-01-25T20:56:35;99723.66;;;6.10;100.00
18678;BME280;9469;51.114;13.914;2024-01-25T21:01:47;99730.13;;;6.24;100.00
18678;BME280;9469;51.114;13.914;2024-01-25T21:06:59;99735.59;;;6.18;100.00
18678;BME280;9469;51.114;13.914;2024-01-25T21:12:10;99739.59;;;6.20;100.00
18678;BME280;9469;51.114;13.914;2024-01-25T21:17:16;99742.31;;;6.25;100.00
18678;BME280;9469;51.114;13.914;2024-01-25T21:22:21;99737.69;;;6.16;100.00
18678;BME280;9469;51.114;13.914;2024-01-25T21:27:29;99738.69;;;6.10;100.00
18678;BME280;9469;51.114;13.914;2024-01-25T21:32:35;99753.03;;;5.97;100.00
18678;BME280;9469;51.114;13.914;2024-01-25T21:37:40;99747.03;;;6.02;100.00
18678;BME280;9469;51.114;13.914;2024-01-25T21:42:50;99744.97;;;6.04;100.00
18678;BME280;9469;51.114;13.914;2024-01-25T21:47:58;99755.69;;;5.97;100.00
18678;BME280;9469;51.114;13.914;2024-01-25T21:53:05;99757.56;;;6.18;100.00
18678;BME280;9469;51.114;13.914;2024-01-25T21:58:13;99752.16;;;6.08;100.00
18678;BME280;9469;51.114;13.914;2024-01-25T22:03:18;99759.25;;;5.86;100.00
18678;BME280;9469;51.114;13.914;2024-01-25T22:08:26;99745.09;;;5.92;100.00
18678;BME280;9469;51.114;13.914;2024-01-25T22:13:34;99752.50;;;5.95;100.00
18678;BME280;9469;51.114;13.914;2024-01-25T22:18:41;99750.28;;;5.87;100.00
18678;BME280;9469;51.114;13.914;2024-01-25T22:23:47;99759.78;;;5.88;100.00
18678;BME280;9469;51.114;13.914;2024-01-25T22:28:55;99759.25;;;5.86;100.00
18678;BME280;9469;51.114;13.914;2024-01-25T22:34:00;99748.19;;;5.89;100.00
18678;BME280;9469;51.114;13.914;2024-01-25T22:39:05;99749.81;;;5.90;100.00
18678;BME280;9469;51.114;13.914;2024-01-25T22:44:13;99748.28;;;5.94;100.00
18678;BME280;9469;51.114;13.914;2024-01-25T22:49:18;99759.38;;;5.96;100.00
18678;BME280;9469;51.114;13.914;2024-01-25T22:54:23;99754.28;;;6.11;100.00
18678;BME280;9469;51.114;13.914;2024-01-25T22:59:32;99752.94;;;6.09;100.00
18678;BME280;9469;51.114;13.914;2024-01-25T23:04:37;99750.47;;;6.02;100.00
18678;BME280;9469;51.114;13.914;2024-01-25T23:09:42;99745.25;;;5.86;100.00
18678;BME280;9469;51.114;13.914;2024-01-25T23:14:50;99742.75;;;6.17;100.00
18678;BME280;9469;51.114;13.914;2024-01-25T23:19:55;99742.63;;;6.07;100.00
18678;BME280;9469;51.114;13.914;2024-01-25T23:25:01;99741.63;;;5.75;100.00
18678;BME280;9469;51.114;13.914;2024-01-25T23:30:10;99738.91;;;5.87;100.00
18678;BME280;9469;51.114;13.914;2024-01-25T23:35:16;99743.31;;;5.81;100.00
18678;BME280;9469;51.114;13.914;2024-01-25T23:40:21;99733.50;;;5.76;100.00
18678;BME280;9469;51.114;13.914;2024-01-25T23:45:29;99735.41;;;5.81;100.00
18678;BME280;9469;51.114;13.914;2024-01-25T23:50:35;99741.16;;;5.78;100.00
18678;BME280;9469;51.114;13.914;2024-01-25T23:55:41;99737.88;;;5.71;100.00
